sensor_id;sensor_type;location;lat;lon;timestamp;pressure;altitude;pressure_sealevel;temperature;humidity
45894;BME280;31603;51.148;16.932;2022-07-22T00:00:47;100260.34;;;24.26;100.00
45894;BME280;31603;51.148;16.932;2022-07-22T00:03:13;100259.88;;;24.19;100.00
45894;BME280;31603;51.148;16.932;2022-07-22T00:05:41;100260.41;;;24.21;100.00
45894;BME280;31603;51.148;16.932;2022-07-22T00:08:08;100267.81;;;24.12;100.00
45894;BME280;31603;51.148;16.932;2022-07-22T00:10:34;100258.66;;;24.25;100.00
45894;BME280;31603;51.148;16.932;2022-07-22T00:13:01;100254.97;;;24.06;100.00
45894;BME280;31603;51.148;16.932;2022-07-22T00:15:27;100251.75;;;23.93;100.00
45894;BME280;31603;51.148;16.932;2022-07-22T00:17:55;100270.03;;;24.15;100.00
45894;BME280;31603;51.148;16.932;2022-07-22T00:20:22;100267.47;;;24.61;100.00
45894;BME280;31603;51.148;16.932;2022-07-22T00:22:50;100253.03;;;24.49;100.00
45894;BME280;31603;51.148;16.932;2022-07-22T00:25:17;100259.50;;;24.01;100.00
45894;BME280;31603;51.148;16.932;2022-07-22T00:27:43;100230.59;;;24.01;100.00
45894;BME280;31603;51.148;16.932;2022-07-22T00:30:10;100247.84;;;24.13;100.00
45894;BME280;31603;51.148;16.932;2022-07-22T00:32:37;100272.78;;;24.20;100.00
45894;BME280;31603;51.148;16.932;2022-07-22T00:35:07;100265.50;;;24.19;100.00
45894;BME280;31603;51.148;16.932;2022-07-22T00:37:34;100274.81;;;23.90;100.00
45894;BME280;31603;51.148;16.932;2022-07-22T00:40:03;100253.13;;;23.67;100.00
45894;BME280;31603;51.148;16.932;2022-07-22T00:42:29;100242.88;;;23.81;100.00
45894;BME280;31603;51.148;16.932;2022-07-22T00:44:56;100257.06;;;23.66;100.00
45894;BME280;31603;51.148;16.932;2022-07-22T00:47:22;100245.75;;;23.76;100.00
45894;BME280;31603;51.148;16.932;2022-07-22T00:49:49;100226.94;;;23.76;100.00
45894;BME280;31603;51.148;16.932;2022-07-22T00:52:15;100255.69;;;24.16;100.00
45894;BME280;31603;51.148;16.932;2022-07-22T00:54:44;100209.25;;;23.47;100.00
45894;BME280;31603;51.148;16.932;2022-07-22T00:57:12;100272.41;;;23.44;100.00
45894;BME280;31603;51.148;16.932;2022-07-22T00:59:38;100236.16;;;23.19;100.00
45894;BME280;31603;51.148;16.932;2022-07-22T01:02:05;100275.59;;;22.98;100.00
45894;BME280;31603;51.148;16.932;2022-07-22T01:04:31;100286.88;;;22.83;100.00
45894;BME280;31603;51.148;16.932;2022-07-22T01:06:58;100286.97;;;22.68;100.00
45894;BME280;31603;51.148;16.932;2022-07-22T01:09:24;100291.28;;;22.50;100.00
45894;BME280;31603;51.148;16.932;2022-07-22T01:11:51;100281.00;;;22.30;100.00
45894;BME280;31603;51.148;16.932;2022-07-22T01:14:19;100275.00;;;22.57;100.00
45894;BME280;31603;51.148;16.932;2022-07-22T01:16:46;100301.38;;;22.46;100.00
45894;BME280;31603;51.148;16.932;2022-07-22T01:19:12;100301.00;;;21.87;100.00
45894;BME280;31603;51.148;16.932;2022-07-22T01:21:40;100304.00;;;22.22;100.00
45894;BME280;31603;51.148;16.932;2022-07-22T01:24:07;100292.06;;;21.80;100.00
45894;BME280;31603;51.148;16.932;2022-07-22T01:26:33;100276.38;;;21.79;100.00
45894;BME280;31603;51.148;16.932;2022-07-22T01:29:02;100208.44;;;21.43;100.00
45894;BME280;31603;51.148;16.932;2022-07-22T01:31:29;100299.88;;;21.94;100.00
45894;BME280;31603;51.148;16.932;2022-07-22T01:33:55;100298.41;;;22.06;100.00
45894;BME280;31603;51.148;16.932;2022-07-22T01:36:22;100310.81;;;21.80;100.00
45894;BME280;31603;51.148;16.932;2022-07-22T01:38:51;100304.41;;;21.59;100.00
45894;BME280;31603;51.148;16.932;2022-07-22T01:41:18;100318.13;;;21.40;100.00
45894;BME280;31603;51.148;16.932;2022-07-22T01:43:44;100303.56;;;21.43;100.00
45894;BME280;31603;51.148;16.932;2022-07-22T01:46:11;100300.19;;;21.56;100.00
45894;BME280;31603;51.148;16.932;2022-07-22T01:48:37;100299.03;;;21.88;100.00
45894;BME280;31603;51.148;16.932;2022-07-22T01:51:04;100301.53;;;22.05;100.00
45894;BME280;31603;51.148;16.932;2022-07-22T01:53:31;100297.50;;;22.37;100.00
45894;BME280;31603;51.148;16.932;2022-07-22T01:56:00;100301.69;;;22.39;100.00
45894;BME280;31603;51.148;16.932;2022-07-22T01:58:27;100304.63;;;22.73;100.00
45894;BME280;31603;51.148;16.932;2022-07-22T02:00:53;100301.47;;;22.80;100.00
45894;BME280;31603;51.148;16.932;2022-07-22T02:03:20;100292.13;;;22.50;100.00
45894;BME280;31603;51.148;16.932;2022-07-22T02:05:46;100313.00;;;22.08;100.00
45894;BME280;31603;51.148;16.932;2022-07-22T02:08:13;100310.66;;;22.41;100.00
45894;BME280;31603;51.148;16.932;2022-07-22T02:10:39;100300.91;;;22.33;100.00
45894;BME280;31603;51.148;16.932;2022-07-22T02:13:07;100293.75;;;21.56;100.00
45894;BME280;31603;51.148;16.932;2022-07-22T02:15:34;100325.66;;;21.24;100.00
45894;BME280;31603;51.148;16.932;2022-07-22T02:18:09;100326.16;;;21.01;100.00
45894;BME280;31603;51.148;16.932;2022-07-22T02:20:36;100329.81;;;21.16;100.00
45894;BME280;31603;51.148;16.932;2022-07-22T02:23:02;100329.00;;;21.21;100.00
45894;BME280;31603;51.148;16.932;2022-07-22T02:25:29;100329.25;;;21.20;100.00
45894;BME280;31603;51.148;16.932;2022-07-22T02:27:55;100343.13;;;20.63;100.00
45894;BME280;31603;51.148;16.932;2022-07-22T02:30:23;100352.72;;;20.35;100.00
45894;BME280;31603;51.148;16.932;2022-07-22T02:32:50;100342.78;;;20.50;100.00
45894;BME280;31603;51.148;16.932;2022-07-22T02:35:16;100343.06;;;20.58;100.00
45894;BME280;31603;51.148;16.932;2022-07-22T02:37:43;100360.53;;;20.96;100.00
45894;BME280;31603;51.148;16.932;2022-07-22T02:40:10;100364.94;;;20.72;100.00
45894;BME280;31603;51.148;16.932;2022-07-22T02:42:37;100371.53;;;20.50;100.00
45894;BME280;31603;51.148;16.932;2022-07-22T02:45:04;100385.41;;;20.35;100.00
45894;BME280;31603;51.148;16.932;2022-07-22T02:47:32;100400.06;;;20.52;100.00
45894;BME280;31603;51.148;16.932;2022-07-22T02:49:58;100423.44;;;20.41;100.00
45894;BME280;31603;51.148;16.932;2022-07-22T02:52:24;100424.41;;;20.62;100.00
45894;BME280;31603;51.148;16.932;2022-07-22T02:54:51;100413.63;;;20.91;100.00
45894;BME280;31603;51.148;16.932;2022-07-22T02:57:17;100410.97;;;21.32;100.00
45894;BME280;31603;51.148;16.932;2022-07-22T02:59:44;100436.63;;;21.03;100.00
45894;BME280;31603;51.148;16.932;2022-07-22T03:02:10;100421.78;;;20.98;100.00
45894;BME280;31603;51.148;16.932;2022-07-22T03:04:38;100433.72;;;20.78;100.00
45894;BME280;31603;51.148;16.932;2022-07-22T03:07:05;100456.91;;;20.78;100.00
45894;BME280;31603;51.148;16.932;2022-07-22T03:09:31;100453.47;;;20.61;100.00
45894;BME280;31603;51.148;16.932;2022-07-22T03:11:57;100466.53;;;20.50;100.00
45894;BME280;31603;51.148;16.932;2022-07-22T03:14:25;100460.59;;;20.89;100.00
45894;BME280;31603;51.148;16.932;2022-07-22T03:16:51;100451.16;;;21.05;100.00
45894;BME280;31603;51.148;16.932;2022-07-22T03:19:18;100452.34;;;21.25;100.00
45894;BME280;31603;51.148;16.932;2022-07-22T03:21:45;100440.13;;;21.51;100.00
45894;BME280;31603;51.148;16.932;2022-07-22T03:24:12;100444.31;;;21.49;100.00
45894;BME280;31603;51.148;16.932;2022-07-22T03:26:39;100431.81;;;20.99;100.00
45894;BME280;31603;51.148;16.932;2022-07-22T03:29:05;100410.88;;;21.01;100.00
45894;BME280;31603;51.148;16.932;2022-07-22T03:31:33;100384.63;;;21.23;100.00
45894;BME280;31603;51.148;16.932;2022-07-22T03:33:59;100389.19;;;21.44;100.00
45894;BME280;31603;51.148;16.932;2022-07-22T03:36:26;100386.69;;;21.68;100.00
45894;BME280;31603;51.148;16.932;2022-07-22T03:38:55;100379.09;;;21.94;100.00
45894;BME280;31603;51.148;16.932;2022-07-22T03:41:22;100373.50;;;22.20;100.00
45894;BME280;31603;51.148;16.932;2022-07-22T03:43:48;100361.16;;;22.21;100.00
45894;BME280;31603;51.148;16.932;2022-07-22T03:46:15;100377.94;;;22.41;100.00
45894;BME280;31603;51.148;16.932;2022-07-22T03:48:41;100375.16;;;22.05;100.00
45894;BME280;31603;51.148;16.932;2022-07-22T03:51:08;100339.06;;;21.78;100.00
45894;BME280;31603;51.148;16.932;2022-07-22T03:53:34;100352.78;;;21.75;100.00
45894;BME280;31603;51.148;16.932;2022-07-22T03:56:03;100354.50;;;21.40;100.00
45894;BME280;31603;51.148;16.932;2022-07-22T03:58:34;100354.50;;;21.40;100.00
45894;BME280;31603;51.148;16.932;2022-07-22T04:01:01;100350.53;;;21.97;100.00
45894;BME280;31603;51.148;16.932;2022-07-22T04:03:27;100348.66;;;22.68;100.00
45894;BME280;31603;51.148;16.932;2022-07-22T04:05:56;100349.94;;;22.21;100.00
45894;BME280;31603;51.148;16.932;2022-07-22T04:08:22;100347.09;;;22.41;100.00
45894;BME280;31603;51.148;16.932;2022-07-22T04:10:49;100339.69;;;22.71;100.00
45894;BME280;31603;51.148;16.932;2022-07-22T04:13:16;100290.03;;;22.71;100.00
45894;BME280;31603;51.148;16.932;2022-07-22T04:15:43;100335.03;;;22.46;100.00
45894;BME280;31603;51.148;16.932;2022-07-22T04:18:09;100321.66;;;22.17;100.00
45894;BME280;31603;51.148;16.932;2022-07-22T04:20:36;100311.78;;;22.40;100.00
45894;BME280;31603;51.148;16.932;2022-07-22T04:23:03;100301.59;;;23.14;100.00
45894;BME280;31603;51.148;16.932;2022-07-22T04:25:31;100314.09;;;22.82;100.00
45894;BME280;31603;51.148;16.932;2022-07-22T04:28:03;100311.13;;;22.58;100.00
45894;BME280;31603;51.148;16.932;2022-07-22T04:30:31;100292.13;;;22.50;100.00
45894;BME280;31603;51.148;16.932;2022-07-22T04:32:58;100322.19;;;22.29;100.00
45894;BME280;31603;51.148;16.932;2022-07-22T04:35:27;100298.97;;;22.14;100.00
45894;BME280;31603;51.148;16.932;2022-07-22T04:37:55;100279.66;;;22.07;100.00
45894;BME280;31603;51.148;16.932;2022-07-22T04:40:23;100311.56;;;22.21;100.00
45894;BME280;31603;51.148;16.932;2022-07-22T04:42:52;100307.41;;;21.98;100.00
45894;BME280;31603;51.148;16.932;2022-07-22T04:45:19;100284.91;;;22.29;100.00
45894;BME280;31603;51.148;16.932;2022-07-22T04:47:46;100282.47;;;22.77;100.00
45894;BME280;31603;51.148;16.932;2022-07-22T04:50:13;100278.28;;;21.89;100.00
45894;BME280;31603;51.148;16.932;2022-07-22T04:52:40;100296.19;;;22.19;100.00
45894;BME280;31603;51.148;16.932;2022-07-22T04:55:06;100241.00;;;22.09;100.00
45894;BME280;31603;51.148;16.932;2022-07-22T04:57:33;100275.06;;;22.37;100.00
45894;BME280;31603;51.148;16.932;2022-07-22T04:59:59;100279.13;;;22.15;100.00
45894;BME280;31603;51.148;16.932;2022-07-22T05:02:26;100301.34;;;22.56;100.00
45894;BME280;31603;51.148;16.932;2022-07-22T05:04:54;100288.81;;;22.33;100.00
45894;BME280;31603;51.148;16.932;2022-07-22T05:07:20;100300.38;;;22.81;100.00
45894;BME280;31603;51.148;16.932;2022-07-22T05:09:46;100304.69;;;22.58;100.00
45894;BME280;31603;51.148;16.932;2022-07-22T05:12:13;100291.19;;;22.70;100.00
45894;BME280;31603;51.148;16.932;2022-07-22T05:14:39;100295.97;;;22.70;100.00
45894;BME280;31603;51.148;16.932;2022-07-22T05:17:09;100296.94;;;23.63;100.00
45894;BME280;31603;51.148;16.932;2022-07-22T05:19:37;100295.09;;;23.53;100.00
45894;BME280;31603;51.148;16.932;2022-07-22T05:22:09;100296.16;;;23.23;100.00
45894;BME280;31603;51.148;16.932;2022-07-22T05:24:36;100300.91;;;23.62;100.00
45894;BME280;31603;51.148;16.932;2022-07-22T05:27:20;100316.56;;;22.94;100.00
45894;BME280;31603;51.148;16.932;2022-07-22T05:29:57;100211.16;;;22.83;100.00
45894;BME280;31603;51.148;16.932;2022-07-22T05:32:43;100322.66;;;23.80;100.00
45894;BME280;31603;51.148;16.932;2022-07-22T05:35:10;100338.56;;;23.55;100.00
45894;BME280;31603;51.148;16.932;2022-07-22T05:37:38;100323.91;;;23.93;100.00
45894;BME280;31603;51.148;16.932;2022-07-22T05:40:05;100325.47;;;23.80;100.00
45894;BME280;31603;51.148;16.932;2022-07-22T05:42:32;100336.59;;;23.56;100.00
45894;BME280;31603;51.148;16.932;2022-07-22T05:44:59;100315.13;;;24.53;100.00
45894;BME280;31603;51.148;16.932;2022-07-22T05:47:25;100340.75;;;24.22;100.00
45894;BME280;31603;51.148;16.932;2022-07-22T05:49:51;100355.84;;;24.31;100.00
45894;BME280;31603;51.148;16.932;2022-07-22T05:52:18;100342.19;;;24.91;100.00
45894;BME280;31603;51.148;16.932;2022-07-22T05:54:46;100336.16;;;25.55;100.00
45894;BME280;31603;51.148;16.932;2022-07-22T05:57:12;100339.38;;;25.29;100.00
45894;BME280;31603;51.148;16.932;2022-07-22T05:59:39;100343.09;;;25.06;100.00
45894;BME280;31603;51.148;16.932;2022-07-22T06:02:06;100337.84;;;24.80;100.00
45894;BME280;31603;51.148;16.932;2022-07-22T06:04:35;100336.69;;;25.38;100.00
45894;BME280;31603;51.148;16.932;2022-07-22T06:07:02;100328.25;;;24.81;100.00
45894;BME280;31603;51.148;16.932;2022-07-22T06:09:31;100345.78;;;25.16;100.00
45894;BME280;31603;51.148;16.932;2022-07-22T06:11:59;100336.16;;;25.55;100.00
45894;BME280;31603;51.148;16.932;2022-07-22T06:14:25;100327.22;;;25.15;100.00
45894;BME280;31603;51.148;16.932;2022-07-22T06:16:52;100339.38;;;24.91;100.00
45894;BME280;31603;51.148;16.932;2022-07-22T06:19:18;100338.44;;;24.77;100.00
45894;BME280;31603;51.148;16.932;2022-07-22T06:21:45;100306.38;;;24.30;100.00
45894;BME280;31603;51.148;16.932;2022-07-22T06:24:11;100341.91;;;24.69;100.00
45894;BME280;31603;51.148;16.932;2022-07-22T06:26:38;100336.91;;;24.66;100.00
45894;BME280;31603;51.148;16.932;2022-07-22T06:29:06;100357.09;;;24.68;100.00
45894;BME280;31603;51.148;16.932;2022-07-22T06:31:32;100335.00;;;24.32;100.00
45894;BME280;31603;51.148;16.932;2022-07-22T06:33:59;100314.44;;;24.13;100.00
45894;BME280;31603;51.148;16.932;2022-07-22T06:36:35;100352.94;;;24.41;100.00
45894;BME280;31603;51.148;16.932;2022-07-22T06:39:02;100337.22;;;24.40;100.00
45894;BME280;31603;51.148;16.932;2022-07-22T06:41:30;100348.47;;;24.35;100.00
45894;BME280;31603;51.148;16.932;2022-07-22T06:43:57;100339.88;;;24.74;100.00
45894;BME280;31603;51.148;16.932;2022-07-22T06:46:27;100349.38;;;24.97;100.00
45894;BME280;31603;51.148;16.932;2022-07-22T06:48:53;100337.38;;;24.49;100.00
45894;BME280;31603;51.148;16.932;2022-07-22T06:51:23;100345.00;;;24.91;100.00
45894;BME280;31603;51.148;16.932;2022-07-22T06:53:50;100268.78;;;25.26;100.00
45894;BME280;31603;51.148;16.932;2022-07-22T06:56:16;100337.75;;;25.61;100.00
45894;BME280;31603;51.148;16.932;2022-07-22T06:58:43;100352.72;;;25.75;100.00
45894;BME280;31603;51.148;16.932;2022-07-22T07:01:12;100336.47;;;25.34;100.00
45894;BME280;31603;51.148;16.932;2022-07-22T07:03:42;100354.91;;;26.11;100.00
45894;BME280;31603;51.148;16.932;2022-07-22T07:06:10;100353.34;;;26.05;100.00
45894;BME280;31603;51.148;16.932;2022-07-22T07:08:37;100352.44;;;25.58;100.00
45894;BME280;31603;51.148;16.932;2022-07-22T07:11:04;100361.84;;;25.86;100.00
45894;BME280;31603;51.148;16.932;2022-07-22T07:13:31;100359.47;;;27.31;100.00
45894;BME280;31603;51.148;16.932;2022-07-22T07:16:00;100342.78;;;27.07;100.00
45894;BME280;31603;51.148;16.932;2022-07-22T07:18:27;100357.78;;;26.66;100.00
45894;BME280;31603;51.148;16.932;2022-07-22T07:20:55;100359.13;;;26.41;100.00
45894;BME280;31603;51.148;16.932;2022-07-22T07:23:22;100352.28;;;26.01;100.00
45894;BME280;31603;51.148;16.932;2022-07-22T07:25:50;100334.06;;;26.26;100.00
45894;BME280;31603;51.148;16.932;2022-07-22T07:28:18;100365.22;;;26.02;100.00
45894;BME280;31603;51.148;16.932;2022-07-22T07:30:44;100357.63;;;26.16;100.00
45894;BME280;31603;51.148;16.932;2022-07-22T07:33:11;100338.63;;;26.08;100.00
45894;BME280;31603;51.148;16.932;2022-07-22T07:35:38;100325.81;;;26.57;100.00
45894;BME280;31603;51.148;16.932;2022-07-22T07:38:14;100300.16;;;26.95;100.00
45894;BME280;31603;51.148;16.932;2022-07-22T07:40:41;100346.53;;;27.16;100.00
45894;BME280;31603;51.148;16.932;2022-07-22T07:43:15;100324.25;;;26.51;100.00
45894;BME280;31603;51.148;16.932;2022-07-22T07:45:42;100363.13;;;27.99;100.00
45894;BME280;31603;51.148;16.932;2022-07-22T07:48:09;100363.25;;;28.16;100.00
45894;BME280;31603;51.148;16.932;2022-07-22T07:50:39;100327.16;;;26.73;100.00
45894;BME280;31603;51.148;16.932;2022-07-22T07:53:08;100348.25;;;26.89;100.00
45894;BME280;31603;51.148;16.932;2022-07-22T07:55:38;100342.25;;;27.19;100.00
45894;BME280;31603;51.148;16.932;2022-07-22T07:58:14;100302.53;;;27.60;100.00
45894;BME280;31603;51.148;16.932;2022-07-22T08:00:52;100315.94;;;27.54;100.00
45894;BME280;31603;51.148;16.932;2022-07-22T08:03:19;100352.38;;;27.78;100.00
45894;BME280;31603;51.148;16.932;2022-07-22T08:05:46;100323.06;;;27.74;100.00
45894;BME280;31603;51.148;16.932;2022-07-22T08:08:12;100344.94;;;27.82;100.00
45894;BME280;31603;51.148;16.932;2022-07-22T08:10:40;100352.19;;;28.06;98.52
45894;BME280;31603;51.148;16.932;2022-07-22T08:13:07;100357.50;;;28.30;96.03
45894;BME280;31603;51.148;16.932;2022-07-22T08:15:33;100346.13;;;29.10;89.41
45894;BME280;31603;51.148;16.932;2022-07-22T08:18:06;100326.97;;;29.50;80.48
45894;BME280;31603;51.148;16.932;2022-07-22T08:20:41;100286.25;;;28.19;85.90
45894;BME280;31603;51.148;16.932;2022-07-22T08:23:25;100317.91;;;26.95;100.00
45894;BME280;31603;51.148;16.932;2022-07-22T08:26:15;100356.56;;;28.12;96.12
45894;BME280;31603;51.148;16.932;2022-07-22T08:28:42;100360.59;;;28.99;88.45
45894;BME280;31603;51.148;16.932;2022-07-22T08:31:09;100359.94;;;27.92;95.42
45894;BME280;31603;51.148;16.932;2022-07-22T08:33:37;100360.69;;;28.06;98.15
45894;BME280;31603;51.148;16.932;2022-07-22T08:36:04;100349.97;;;27.72;100.00
45894;BME280;31603;51.148;16.932;2022-07-22T08:38:31;100314.56;;;28.28;93.46
45894;BME280;31603;51.148;16.932;2022-07-22T08:40:59;100373.00;;;28.33;94.10
45894;BME280;31603;51.148;16.932;2022-07-22T08:43:38;100351.81;;;29.27;87.54
45894;BME280;31603;51.148;16.932;2022-07-22T08:46:06;100356.94;;;30.03;78.47
45894;BME280;31603;51.148;16.932;2022-07-22T08:48:36;100374.09;;;29.98;78.37
45894;BME280;31603;51.148;16.932;2022-07-22T08:51:07;100372.88;;;30.34;72.02
45894;BME280;31603;51.148;16.932;2022-07-22T08:53:34;100363.25;;;30.56;72.29
45894;BME280;31603;51.148;16.932;2022-07-22T08:56:02;100364.47;;;30.46;74.70
45894;BME280;31603;51.148;16.932;2022-07-22T08:58:33;100329.59;;;29.90;69.32
45894;BME280;31603;51.148;16.932;2022-07-22T09:01:07;100363.16;;;30.43;68.24
45894;BME280;31603;51.148;16.932;2022-07-22T09:03:44;100340.78;;;29.08;82.71
45894;BME280;31603;51.148;16.932;2022-07-22T09:06:15;100362.22;;;30.13;71.04
45894;BME280;31603;51.148;16.932;2022-07-22T09:08:53;100357.94;;;29.03;74.41
45894;BME280;31603;51.148;16.932;2022-07-22T09:11:22;100357.50;;;29.62;72.53
45894;BME280;31603;51.148;16.932;2022-07-22T09:13:55;100345.03;;;30.95;58.76
45894;BME280;31603;51.148;16.932;2022-07-22T09:16:42;100350.28;;;31.35;52.71
45894;BME280;31603;51.148;16.932;2022-07-22T09:19:09;100368.91;;;31.65;51.51
45894;BME280;31603;51.148;16.932;2022-07-22T09:21:37;100309.59;;;31.76;49.70
45894;BME280;31603;51.148;16.932;2022-07-22T09:24:28;100280.28;;;32.09;47.83
45894;BME280;31603;51.148;16.932;2022-07-22T09:27:05;100324.66;;;30.63;51.34
45894;BME280;31603;51.148;16.932;2022-07-22T09:29:34;100334.19;;;31.39;54.08
45894;BME280;31603;51.148;16.932;2022-07-22T09:32:01;100330.19;;;31.73;50.20
45894;BME280;31603;51.148;16.932;2022-07-22T09:34:28;100350.59;;;32.54;48.57
45894;BME280;31603;51.148;16.932;2022-07-22T09:36:58;100335.28;;;31.05;52.18
45894;BME280;31603;51.148;16.932;2022-07-22T09:39:25;100334.94;;;29.83;57.03
45894;BME280;31603;51.148;16.932;2022-07-22T09:42:02;100324.09;;;29.85;55.75
45894;BME280;31603;51.148;16.932;2022-07-22T09:44:36;100339.75;;;30.85;51.95
45894;BME280;31603;51.148;16.932;2022-07-22T09:47:03;100345.19;;;31.20;50.93
45894;BME280;31603;51.148;16.932;2022-07-22T09:49:31;100331.59;;;31.34;51.75
45894;BME280;31603;51.148;16.932;2022-07-22T09:51:59;100317.94;;;30.38;55.35
45894;BME280;31603;51.148;16.932;2022-07-22T09:54:27;100325.50;;;30.26;63.64
45894;BME280;31603;51.148;16.932;2022-07-22T09:56:55;100323.09;;;29.81;65.54
45894;BME280;31603;51.148;16.932;2022-07-22T09:59:23;100325.66;;;29.65;61.52
45894;BME280;31603;51.148;16.932;2022-07-22T10:01:54;100332.34;;;30.25;60.29
45894;BME280;31603;51.148;16.932;2022-07-22T10:04:26;100278.47;;;29.08;59.98
45894;BME280;31603;51.148;16.932;2022-07-22T10:06:56;100324.47;;;29.31;59.83
45894;BME280;31603;51.148;16.932;2022-07-22T10:09:24;100304.31;;;29.24;57.18
45894;BME280;31603;51.148;16.932;2022-07-22T10:11:51;100321.91;;;30.46;51.42
45894;BME280;31603;51.148;16.932;2022-07-22T10:14:20;100285.44;;;30.27;46.40
45894;BME280;31603;51.148;16.932;2022-07-22T10:16:48;100298.94;;;30.30;47.85
45894;BME280;31603;51.148;16.932;2022-07-22T10:19:16;100318.34;;;31.29;45.71
45894;BME280;31603;51.148;16.932;2022-07-22T10:21:43;100293.34;;;30.81;45.25
45894;BME280;31603;51.148;16.932;2022-07-22T10:24:11;100317.06;;;32.26;42.35
45894;BME280;31603;51.148;16.932;2022-07-22T10:26:48;100286.31;;;31.62;43.94
45894;BME280;31603;51.148;16.932;2022-07-22T10:29:28;100289.94;;;33.59;40.08
45894;BME280;31603;51.148;16.932;2022-07-22T10:32:22;100288.00;;;31.96;40.13
45894;BME280;31603;51.148;16.932;2022-07-22T10:35:24;100313.91;;;33.29;39.24
45894;BME280;31603;51.148;16.932;2022-07-22T10:37:53;100301.38;;;33.18;39.01
45894;BME280;31603;51.148;16.932;2022-07-22T10:40:28;100303.66;;;32.39;39.62
45894;BME280;31603;51.148;16.932;2022-07-22T10:43:10;100265.91;;;31.27;41.99
45894;BME280;31603;51.148;16.932;2022-07-22T10:45:42;100300.44;;;32.16;40.84
45894;BME280;31603;51.148;16.932;2022-07-22T10:48:12;100293.53;;;32.50;39.59
45894;BME280;31603;51.148;16.932;2022-07-22T10:50:51;100282.88;;;33.40;37.09
45894;BME280;31603;51.148;16.932;2022-07-22T10:53:22;100303.22;;;34.42;34.89
45894;BME280;31603;51.148;16.932;2022-07-22T10:56:02;100302.31;;;34.07;35.38
45894;BME280;31603;51.148;16.932;2022-07-22T10:58:50;100280.03;;;33.68;35.92
45894;BME280;31603;51.148;16.932;2022-07-22T11:01:19;100280.03;;;33.12;36.23
45894;BME280;31603;51.148;16.932;2022-07-22T11:03:48;100306.25;;;33.18;36.30
45894;BME280;31603;51.148;16.932;2022-07-22T11:06:27;100297.06;;;34.09;34.96
45894;BME280;31603;51.148;16.932;2022-07-22T11:08:56;100304.53;;;35.31;32.38
45894;BME280;31603;51.148;16.932;2022-07-22T11:11:53;100219.88;;;35.07;30.65
45894;BME280;31603;51.148;16.932;2022-07-22T11:14:27;100250.47;;;34.52;31.94
45894;BME280;31603;51.148;16.932;2022-07-22T11:16:57;100274.47;;;36.22;30.44
45894;BME280;31603;51.148;16.932;2022-07-22T11:19:27;100255.09;;;35.11;29.98
45894;BME280;31603;51.148;16.932;2022-07-22T11:25:00;100243.31;;;35.98;29.57
45894;BME280;31603;51.148;16.932;2022-07-22T11:27:26;100267.72;;;34.75;29.30
45894;BME280;31603;51.148;16.932;2022-07-22T11:29:58;100267.59;;;36.04;27.70
45894;BME280;31603;51.148;16.932;2022-07-22T11:32:29;100264.25;;;33.87;30.92
45894;BME280;31603;51.148;16.932;2022-07-22T11:34:58;100264.03;;;35.68;30.27
45894;BME280;31603;51.148;16.932;2022-07-22T11:37:26;100270.19;;;36.35;29.30
45894;BME280;31603;51.148;16.932;2022-07-22T11:40:00;100273.25;;;36.00;29.72
45894;BME280;31603;51.148;16.932;2022-07-22T11:42:27;100248.22;;;36.96;27.81
45894;BME280;31603;51.148;16.932;2022-07-22T11:45:16;100267.13;;;36.02;29.01
45894;BME280;31603;51.148;16.932;2022-07-22T11:47:51;100258.19;;;35.84;29.83
45894;BME280;31603;51.148;16.932;2022-07-22T11:50:30;100261.09;;;35.64;29.76
45894;BME280;31603;51.148;16.932;2022-07-22T11:52:57;100250.97;;;35.28;30.61
45894;BME280;31603;51.148;16.932;2022-07-22T11:55:25;100265.88;;;35.37;30.29
45894;BME280;31603;51.148;16.932;2022-07-22T11:57:55;100246.16;;;34.78;30.66
45894;BME280;31603;51.148;16.932;2022-07-22T12:00:22;100237.75;;;34.34;30.46
45894;BME280;31603;51.148;16.932;2022-07-22T12:02:50;100254.34;;;34.28;30.98
45894;BME280;31603;51.148;16.932;2022-07-22T12:05:17;100248.91;;;34.55;30.64
45894;BME280;31603;51.148;16.932;2022-07-22T12:07:44;100252.63;;;33.64;31.77
45894;BME280;31603;51.148;16.932;2022-07-22T12:10:12;100246.88;;;33.20;31.35
45894;BME280;31603;51.148;16.932;2022-07-22T12:12:41;100247.69;;;32.68;32.85
45894;BME280;31603;51.148;16.932;2022-07-22T12:15:08;100238.16;;;34.00;30.60
45894;BME280;31603;51.148;16.932;2022-07-22T12:17:35;100253.56;;;34.47;29.14
45894;BME280;31603;51.148;16.932;2022-07-22T12:20:09;100251.16;;;35.58;28.80
45894;BME280;31603;51.148;16.932;2022-07-22T12:22:44;100234.19;;;34.21;30.18
45894;BME280;31603;51.148;16.932;2022-07-22T12:25:11;100213.97;;;36.27;28.03
45894;BME280;31603;51.148;16.932;2022-07-22T12:27:37;100241.34;;;34.46;30.31
45894;BME280;31603;51.148;16.932;2022-07-22T12:30:13;100229.06;;;34.46;30.51
45894;BME280;31603;51.148;16.932;2022-07-22T12:32:46;100227.72;;;34.24;30.69
45894;BME280;31603;51.148;16.932;2022-07-22T12:35:14;100217.94;;;33.62;31.52
45894;BME280;31603;51.148;16.932;2022-07-22T12:37:42;100214.16;;;33.73;31.97
45894;BME280;31603;51.148;16.932;2022-07-22T12:40:10;100200.41;;;35.13;30.65
45894;BME280;31603;51.148;16.932;2022-07-22T13:31:54;100207.53;;;36.57;27.43
45894;BME280;31603;51.148;16.932;2022-07-22T13:34:50;100206.53;;;37.36;26.54